createdAt,value
2019-02-23T00:01:42.817Z,99.90
2019-02-23T00:04:24.629Z,99.90
2019-02-23T00:07:06.950Z,99.90
2019-02-23T00:09:48.564Z,99.90
2019-02-23T00:12:30.377Z,99.90
2019-02-23T00:15:11.950Z,99.90
2019-02-23T00:17:53.872Z,99.90
2019-02-23T00:20:36.128Z,99.90
2019-02-23T00:23:18.296Z,99.90
2019-02-23T00:26:00.618Z,99.90
2019-02-23T00:28:42.573Z,99.90
2019-02-23T00:31:24.852Z,99.90
2019-02-23T00:34:07.154Z,99.90
2019-02-23T00:36:48.748Z,99.90
2019-02-23T00:39:30.720Z,99.90
2019-02-23T00:42:12.822Z,99.90
2019-02-23T00:44:54.862Z,99.90
2019-02-23T00:47:36.596Z,99.90
2019-02-23T00:50:18.197Z,99.90
2019-02-23T00:53:00.148Z,99.90
2019-02-23T00:55:41.803Z,99.90
2019-02-23T00:58:23.519Z,99.90
2019-02-23T01:01:05.658Z,99.90
2019-02-23T01:03:47.939Z,99.90
2019-02-23T01:06:29.556Z,99.90
2019-02-23T01:12:10.929Z,99.90
2019-02-23T01:14:53.026Z,99.90
2019-02-23T01:17:35.314Z,99.90
2019-02-23T01:20:17.215Z,99.90
2019-02-23T01:22:59.708Z,99.90
2019-02-23T01:25:41.861Z,99.90
2019-02-23T01:28:24.027Z,99.90
2019-02-23T01:31:06.280Z,99.90
2019-02-23T01:33:48.013Z,99.90
2019-02-23T01:36:30.358Z,99.90
2019-02-23T01:39:12.592Z,99.90
2019-02-23T01:41:54.473Z,99.90
2019-02-23T01:44:36.594Z,99.90
2019-02-23T01:47:18.616Z,99.90
2019-02-23T01:50:00.279Z,99.90
2019-02-23T01:52:42.488Z,99.90
2019-02-23T01:55:24.823Z,99.90
2019-02-23T01:58:06.579Z,99.90
2019-02-23T02:00:48.731Z,99.90
2019-02-23T02:03:30.826Z,99.90
2019-02-23T02:06:12.450Z,99.90
2019-02-23T02:08:54.793Z,99.90
2019-02-23T02:11:37.366Z,99.90
2019-02-23T02:14:19.694Z,99.90
2019-02-23T02:17:01.434Z,99.90
2019-02-23T02:19:43.374Z,99.90
2019-02-23T02:22:25.696Z,99.90
2019-02-23T02:25:07.466Z,99.90
2019-02-23T02:27:49.195Z,99.90
2019-02-23T02:30:31.222Z,99.90
2019-02-23T02:33:13.405Z,99.90
2019-02-23T02:35:55.419Z,99.90
2019-02-23T02:38:37.502Z,99.90
2019-02-23T02:41:19.820Z,99.90
2019-02-23T02:44:02.066Z,99.90
2019-02-23T02:46:44.238Z,99.90
2019-02-23T02:49:26.221Z,99.90
2019-02-23T02:52:07.709Z,99.90
2019-02-23T02:54:49.793Z,99.90
2019-02-23T02:57:31.751Z,99.90
2019-02-23T03:00:13.909Z,99.90
2019-02-23T03:02:55.943Z,99.90
2019-02-23T03:05:37.657Z,99.90
2019-02-23T03:08:19.932Z,99.90
2019-02-23T03:11:01.993Z,99.90
2019-02-23T03:13:44.105Z,99.90
2019-02-23T03:16:26.261Z,99.90
2019-02-23T03:19:08.605Z,99.90
2019-02-23T03:21:50.381Z,99.90
2019-02-23T03:24:32.403Z,99.90
2019-02-23T03:27:14.789Z,99.90
2019-02-23T03:29:57.009Z,99.90
2019-02-23T03:32:38.807Z,99.90
2019-02-23T03:35:20.425Z,99.90
2019-02-23T03:38:02.497Z,99.90
2019-02-23T03:40:44.896Z,99.90
2019-02-23T03:43:27.058Z,99.90
2019-02-23T03:46:09.028Z,99.90
2019-02-23T03:48:51.295Z,99.90
2019-02-23T03:51:33.133Z,99.90
2019-02-23T03:54:14.690Z,99.90
2019-02-23T03:56:56.970Z,99.90
2019-02-23T03:59:38.699Z,99.90
2019-02-23T04:02:20.708Z,99.90
2019-02-23T04:05:02.976Z,99.90
2019-02-23T04:07:44.957Z,99.90
2019-02-23T04:10:27.409Z,99.90
2019-02-23T04:13:09.585Z,99.90
2019-02-23T04:15:51.254Z,99.90
2019-02-23T04:18:32.840Z,99.90
2019-02-23T04:21:14.938Z,99.90
2019-02-23T04:23:56.957Z,99.90
2019-02-23T04:26:38.576Z,99.90
2019-02-23T04:29:20.345Z,99.90
2019-02-23T04:32:02.417Z,99.90
2019-02-23T04:34:44.563Z,99.90
2019-02-23T04:37:26.347Z,99.90
2019-02-23T04:40:08.458Z,99.90
2019-02-23T04:42:50.129Z,99.90
2019-02-23T04:45:32.250Z,99.90
2019-02-23T04:48:14.166Z,99.90
2019-02-23T04:50:56.116Z,99.90
2019-02-23T04:53:37.917Z,99.90
2019-02-23T04:56:19.821Z,99.90
2019-02-23T04:59:01.491Z,99.90
2019-02-23T05:01:43.418Z,99.90
2019-02-23T05:04:25.584Z,99.90
2019-02-23T05:07:07.196Z,99.90
2019-02-23T05:09:49.457Z,99.90
2019-02-23T05:12:30.992Z,99.90
2019-02-23T05:15:13.064Z,99.90
2019-02-23T05:17:55.499Z,99.90
2019-02-23T05:20:44.533Z,99.90
2019-02-23T05:23:33.914Z,99.90
2019-02-23T05:26:04.211Z,99.90
2019-02-23T05:28:53.557Z,99.90
2019-02-23T05:31:42.913Z,99.90
2019-02-23T05:34:32.284Z,99.90
2019-02-23T05:37:21.595Z,99.90
2019-02-23T05:40:11.047Z,99.90
2019-02-23T05:43:01.387Z,99.90
2019-02-23T05:46:10.850Z,99.90
2019-02-23T05:49:00.201Z,99.90
2019-02-23T05:51:49.597Z,99.90
2019-02-23T05:54:38.972Z,99.90
2019-02-23T05:57:28.382Z,99.90
2019-02-23T06:00:17.765Z,99.90
2019-02-23T06:03:07.140Z,99.90
2019-02-23T06:05:56.494Z,99.90
2019-02-23T06:08:45.869Z,99.90
2019-02-23T06:11:35.263Z,99.90
2019-02-23T06:14:24.627Z,99.90
2019-02-23T06:17:06.261Z,99.90
2019-02-23T06:19:48.524Z,99.90
2019-02-23T06:22:30.618Z,99.90
2019-02-23T06:25:12.980Z,99.90
2019-02-23T06:27:55.093Z,99.90
2019-02-23T06:30:37.478Z,99.90
2019-02-23T06:33:19.112Z,99.90
2019-02-23T06:36:00.749Z,99.90
2019-02-23T06:38:42.210Z,99.90
2019-02-23T06:41:24.034Z,99.90
2019-02-23T06:44:06.481Z,99.90
2019-02-23T06:46:48.382Z,99.90
2019-02-23T06:49:30.158Z,99.90
2019-02-23T06:52:11.661Z,99.90
2019-02-23T06:54:53.851Z,99.90
2019-02-23T06:57:36.190Z,99.90
2019-02-23T07:00:18.143Z,99.90
2019-02-23T07:03:00.253Z,99.60
2019-02-23T07:05:42.633Z,99.80
2019-02-23T07:08:24.167Z,99.80
2019-02-23T07:14:05.072Z,99.30
2019-02-23T07:16:47.243Z,99.80
2019-02-23T07:19:29.492Z,99.90
2019-02-23T07:22:15.456Z,99.80
2019-02-23T07:28:28.097Z,98.90
2019-02-23T07:31:10.239Z,99.70
2019-02-23T07:33:51.990Z,99.90
2019-02-23T07:36:35.694Z,99.70
2019-02-23T07:39:17.277Z,99.30
2019-02-23T07:41:59.381Z,99.30
2019-02-23T07:44:41.450Z,99.30
2019-02-23T07:47:23.196Z,99.10
2019-02-23T07:50:05.413Z,99.10
2019-02-23T07:52:47.427Z,99.00
2019-02-23T07:55:29.190Z,99.00
2019-02-23T07:58:11.074Z,99.10
2019-02-23T08:00:53.117Z,99.20
2019-02-23T08:03:36.958Z,99.00
2019-02-23T08:06:18.582Z,99.00
2019-02-23T08:09:00.873Z,98.90
2019-02-23T08:11:43.111Z,98.90
2019-02-23T08:14:25.233Z,98.70
2019-02-23T08:17:07.252Z,98.60
2019-02-23T08:19:49.326Z,98.70
2019-02-23T08:22:37.406Z,98.40
2019-02-23T08:25:15.145Z,98.70
2019-02-23T08:27:57.198Z,98.50
2019-02-23T08:30:38.949Z,98.50
2019-02-23T08:33:20.657Z,98.30
2019-02-23T08:36:02.631Z,98.00
2019-02-23T08:38:44.865Z,97.90
2019-02-23T08:41:26.573Z,97.70
2019-02-23T08:44:08.700Z,97.50
2019-02-23T08:46:50.651Z,97.30
2019-02-23T08:49:32.569Z,97.10
2019-02-23T08:52:14.523Z,96.90
2019-02-23T08:54:56.830Z,96.40
2019-02-23T08:57:38.921Z,96.60
2019-02-23T09:00:21.106Z,95.90
2019-02-23T09:03:03.034Z,95.50
2019-02-23T09:05:44.790Z,94.90
2019-02-23T09:08:26.652Z,94.90
2019-02-23T09:11:09.187Z,94.40
2019-02-23T09:13:51.601Z,94.30
2019-02-23T09:16:33.462Z,93.90
2019-02-23T09:19:15.521Z,93.50
2019-02-23T09:21:56.247Z,93.40
2019-02-23T09:24:38.282Z,93.40
2019-02-23T09:27:20.127Z,93.30
2019-02-23T09:30:01.796Z,93.00
2019-02-23T09:32:44.142Z,92.00
2019-02-23T09:35:26.159Z,91.40
2019-02-23T09:38:08.504Z,91.40
2019-02-23T09:40:50.572Z,92.20
2019-02-23T09:43:32.764Z,91.40
2019-02-23T09:46:14.399Z,91.20
2019-02-23T09:48:56.877Z,90.80
2019-02-23T09:51:38.466Z,91.70
2019-02-23T09:54:20.244Z,92.40
2019-02-23T09:57:02.089Z,92.20
2019-02-23T09:59:43.964Z,89.50
2019-02-23T10:02:26.085Z,87.60
2019-02-23T10:05:08.085Z,88.40
2019-02-23T10:07:50.353Z,86.70
2019-02-23T10:10:32.072Z,80.90
2019-02-23T10:13:14.345Z,82.20
2019-02-23T10:15:56.641Z,78.90
2019-02-23T10:18:38.200Z,75.30
2019-02-23T10:21:20.237Z,76.20
2019-02-23T10:24:02.440Z,70.40
2019-02-23T10:26:44.401Z,67.50
2019-02-23T10:32:25.318Z,77.90
2019-02-23T10:35:07.775Z,80.30
2019-02-23T10:37:50.222Z,81.00
2019-02-23T10:40:32.228Z,80.50
2019-02-23T10:43:14.239Z,80.40
2019-02-23T10:45:56.238Z,80.70
2019-02-23T10:48:38.150Z,81.00
2019-02-23T10:51:20.202Z,80.20
2019-02-23T10:54:02.301Z,79.30
2019-02-23T10:56:44.366Z,79.00
2019-02-23T10:59:26.528Z,77.60
2019-02-23T11:02:08.792Z,75.70
2019-02-23T11:04:50.670Z,74.10
2019-02-23T11:07:32.731Z,73.30
2019-02-23T11:10:15.207Z,71.40
2019-02-23T11:12:56.711Z,69.70
2019-02-23T11:15:39.138Z,68.90
2019-02-23T11:18:21.082Z,68.00
2019-02-23T11:21:02.629Z,66.00
2019-02-23T11:23:44.726Z,66.50
2019-02-23T11:26:26.679Z,64.30
2019-02-23T11:29:09.430Z,63.40
2019-02-23T11:31:51.344Z,63.20
2019-02-23T11:34:33.374Z,61.00
2019-02-23T11:37:15.311Z,60.10
2019-02-23T11:39:57.543Z,59.50
2019-02-23T11:42:39.645Z,59.20
2019-02-23T11:45:22.155Z,57.00
2019-02-23T11:48:04.509Z,54.80
2019-02-23T11:50:46.421Z,55.10
2019-02-23T11:53:28.533Z,53.10
2019-02-23T11:56:10.592Z,44.70
2019-02-23T11:58:52.228Z,42.60
2019-02-23T12:01:34.262Z,41.50
2019-02-23T12:04:16.458Z,40.40
2019-02-23T12:07:00.185Z,40.00
2019-02-23T12:09:41.782Z,37.90
2019-02-23T12:15:22.713Z,38.10
2019-02-23T12:18:04.197Z,39.80
2019-02-23T12:20:46.164Z,41.40
2019-02-23T12:23:28.620Z,40.60
2019-02-23T12:26:10.652Z,41.40
2019-02-23T12:28:52.861Z,41.00
2019-02-23T12:31:35.220Z,41.30
2019-02-23T12:34:17.326Z,40.00
2019-02-23T12:36:59.400Z,39.40
2019-02-23T12:39:41.688Z,38.50
2019-02-23T12:42:24.134Z,38.20
2019-02-23T12:45:06.515Z,38.20
2019-02-23T12:47:51.130Z,37.70
2019-02-23T12:50:33.412Z,37.40
2019-02-23T12:53:15.634Z,38.00
2019-02-23T12:55:57.589Z,37.30
2019-02-23T12:58:39.138Z,36.60
2019-02-23T13:01:21.478Z,36.80
2019-02-23T13:07:02.300Z,35.60
2019-02-23T13:09:44.261Z,36.00
2019-02-23T13:15:58.968Z,34.70
2019-02-23T13:18:40.951Z,34.30
2019-02-23T13:21:23.089Z,34.50
2019-02-23T13:27:38.488Z,34.20
2019-02-23T13:30:20.442Z,33.30
2019-02-23T13:33:02.365Z,33.90
2019-02-23T13:35:44.333Z,33.80
2019-02-23T13:38:26.637Z,32.50
2019-02-23T13:41:08.786Z,32.10
2019-02-23T13:43:50.753Z,32.00
2019-02-23T13:46:32.483Z,31.80
2019-02-23T13:49:14.633Z,31.30
2019-02-23T13:51:56.936Z,30.80
2019-02-23T13:54:39.216Z,31.10
2019-02-23T13:57:21.799Z,31.00
2019-02-23T14:00:03.681Z,32.60
2019-02-23T14:02:45.929Z,32.00
2019-02-23T14:05:28.236Z,31.90
2019-02-23T14:08:10.305Z,31.80
2019-02-23T14:10:52.760Z,31.60
2019-02-23T14:13:34.828Z,32.30
2019-02-23T14:16:16.812Z,33.70
2019-02-23T14:18:58.455Z,32.20
2019-02-23T14:21:40.039Z,33.20
2019-02-23T14:24:22.386Z,33.50
2019-02-23T14:27:04.458Z,32.10
2019-02-23T14:29:46.798Z,31.30
2019-02-23T14:32:28.765Z,31.40
2019-02-23T14:35:10.862Z,31.30
2019-02-23T14:37:54.881Z,31.70
2019-02-23T14:40:36.585Z,32.40
2019-02-23T14:43:18.695Z,31.60
2019-02-23T14:46:00.324Z,32.10
2019-02-23T14:48:42.188Z,33.40
2019-02-23T14:51:24.016Z,32.40
2019-02-23T14:54:06.114Z,33.50
2019-02-23T14:56:48.065Z,33.30
2019-02-23T14:59:29.938Z,31.80
2019-02-23T15:02:12.020Z,33.30
2019-02-23T15:04:54.126Z,32.50
2019-02-23T15:07:35.776Z,33.10
2019-02-23T15:10:17.961Z,32.70
2019-02-23T15:13:00.145Z,31.10
2019-02-23T15:15:41.715Z,31.40
2019-02-23T15:18:24.054Z,32.40
2019-02-23T15:21:06.289Z,32.80
2019-02-23T15:23:48.609Z,31.00
2019-02-23T15:26:30.630Z,31.60
2019-02-23T15:29:12.955Z,31.70
2019-02-23T15:31:55.185Z,31.80
2019-02-23T15:34:36.853Z,31.70
2019-02-23T15:37:19.188Z,31.60
2019-02-23T15:40:00.895Z,31.30
2019-02-23T15:46:15.955Z,31.70
2019-02-23T15:48:57.763Z,31.80
2019-02-23T15:51:39.682Z,32.80
2019-02-23T15:54:21.647Z,31.80
2019-02-23T15:57:03.752Z,31.90
2019-02-23T16:02:45.769Z,31.60
2019-02-23T16:05:27.868Z,31.80
2019-02-23T16:08:09.762Z,31.70
2019-02-23T16:10:51.893Z,31.00
2019-02-23T16:13:33.480Z,31.60
2019-02-23T16:16:15.970Z,31.90
2019-02-23T16:18:58.311Z,32.00
2019-02-23T16:24:39.397Z,32.60
2019-02-23T16:27:21.433Z,32.40
2019-02-23T16:30:02.927Z,32.90
2019-02-23T16:32:44.848Z,33.10
2019-02-23T16:35:26.602Z,33.50
2019-02-23T16:38:08.792Z,33.60
2019-02-23T16:40:51.171Z,35.10
2019-02-23T16:43:33.594Z,36.10
2019-02-23T16:46:15.284Z,37.20
2019-02-23T16:48:56.798Z,37.60
2019-02-23T16:51:38.383Z,38.30
2019-02-23T16:54:20.090Z,38.40
2019-02-23T16:57:01.693Z,38.90
2019-02-23T16:59:43.489Z,38.80
2019-02-23T17:02:25.123Z,39.10
2019-02-23T17:05:07.389Z,38.30
2019-02-23T17:07:49.535Z,38.40
2019-02-23T17:10:31.405Z,38.60
2019-02-23T17:13:13.198Z,38.80
2019-02-23T17:15:55.344Z,39.10
2019-02-23T17:18:37.355Z,39.40
2019-02-23T17:21:19.548Z,39.50
2019-02-23T17:24:01.730Z,39.40
2019-02-23T17:26:44.155Z,39.60
2019-02-23T17:29:26.361Z,39.90
2019-02-23T17:32:08.485Z,40.10
2019-02-23T17:34:50.069Z,40.30
2019-02-23T17:37:32.066Z,40.30
2019-02-23T17:40:14.438Z,40.90
2019-02-23T17:42:56.771Z,40.80
2019-02-23T17:45:38.330Z,40.90
2019-02-23T17:48:20.311Z,41.00
2019-02-23T17:51:02.584Z,41.40
2019-02-23T17:53:44.497Z,41.10
2019-02-23T17:56:25.990Z,41.00
2019-02-23T17:59:08.359Z,40.50
2019-02-23T18:01:50.174Z,40.30
2019-02-23T18:04:32.192Z,40.50
2019-02-23T18:07:13.992Z,40.00
2019-02-23T18:09:55.972Z,39.70
2019-02-23T18:12:37.485Z,39.90
2019-02-23T18:15:19.606Z,39.50
2019-02-23T18:18:01.512Z,39.70
2019-02-23T18:20:43.692Z,39.90
2019-02-23T18:23:25.542Z,39.60
2019-02-23T18:26:08.033Z,39.20
2019-02-23T18:28:50.291Z,39.30
2019-02-23T18:31:32.394Z,39.50
2019-02-23T18:34:13.912Z,39.10
2019-02-23T18:36:56.030Z,39.20
2019-02-23T18:39:37.873Z,39.50
2019-02-23T18:42:19.949Z,40.10
2019-02-23T18:45:01.463Z,38.90
2019-02-23T18:47:43.820Z,39.30
2019-02-23T18:50:25.825Z,39.00
2019-02-23T18:53:07.753Z,39.50
2019-02-23T18:55:49.437Z,39.20
2019-02-23T18:58:31.324Z,39.50
2019-02-23T19:01:13.749Z,39.70
2019-02-23T19:03:56.228Z,39.30
2019-02-23T19:06:38.459Z,39.40
2019-02-23T19:09:20.269Z,39.70
2019-02-23T19:12:01.857Z,39.40
2019-02-23T19:14:44.325Z,39.70
2019-02-23T19:17:26.770Z,39.60
2019-02-23T19:23:42.540Z,39.40
2019-02-23T19:26:24.473Z,40.20
2019-02-23T19:29:06.076Z,40.60
2019-02-23T19:31:48.434Z,40.30
2019-02-23T19:34:30.387Z,41.20
2019-02-23T19:37:12.884Z,41.10
2019-02-23T19:39:54.932Z,41.10
2019-02-23T19:42:36.534Z,40.70
2019-02-23T19:45:18.123Z,41.40
2019-02-23T19:48:00.731Z,40.60
2019-02-23T19:50:42.575Z,40.80
2019-02-23T19:53:24.859Z,40.80
2019-02-23T19:56:06.960Z,40.80
2019-02-23T19:58:49.288Z,41.20
2019-02-23T20:01:31.190Z,40.30
2019-02-23T20:04:12.796Z,41.20
2019-02-23T20:06:54.546Z,41.10
2019-02-23T20:09:35.101Z,41.20
2019-02-23T20:15:13.122Z,41.00
2019-02-23T20:18:02.523Z,41.50
2019-02-23T20:20:57.891Z,41.50
2019-02-23T20:23:48.069Z,41.10
2019-02-23T20:26:57.992Z,41.30
2019-02-23T20:29:47.511Z,41.60
2019-02-23T20:32:36.980Z,41.80
2019-02-23T20:35:26.445Z,41.80
2019-02-23T20:41:04.466Z,41.70
2019-02-23T20:43:53.914Z,42.00
2019-02-23T20:46:43.314Z,42.30
2019-02-23T20:49:32.716Z,42.60
2019-02-23T20:52:22.060Z,41.70
2019-02-23T20:55:11.493Z,41.50
2019-02-23T20:58:00.905Z,40.80
2019-02-23T21:00:50.305Z,40.20
2019-02-23T21:03:39.664Z,40.40
2019-02-23T21:06:29.074Z,40.20
2019-02-23T21:09:18.561Z,39.50
2019-02-23T21:12:07.932Z,40.30
2019-02-23T21:14:57.287Z,38.90
2019-02-23T21:18:06.089Z,39.00
2019-02-23T21:20:55.521Z,38.40
2019-02-23T21:23:44.821Z,38.30
2019-02-23T21:26:47.579Z,38.40
2019-02-23T21:29:38.602Z,37.30
2019-02-23T21:32:08.949Z,37.40
2019-02-23T21:34:58.328Z,37.40
2019-02-23T21:37:47.756Z,37.10
2019-02-23T21:40:37.135Z,36.70
2019-02-23T21:43:26.523Z,36.30
2019-02-23T21:45:56.857Z,36.20
2019-02-23T21:49:05.287Z,36.30
2019-02-23T21:52:37.239Z,35.90
2019-02-23T21:56:22.086Z,35.30
2019-02-23T21:58:46.187Z,35.20
2019-02-23T22:01:35.530Z,35.40
2019-02-23T22:04:24.953Z,35.00
2019-02-23T22:07:14.320Z,35.20
2019-02-23T22:10:03.680Z,35.90
2019-02-23T22:12:53.041Z,34.80
2019-02-23T22:15:42.422Z,35.20
2019-02-23T22:18:31.746Z,35.40
2019-02-23T22:21:21.116Z,34.40
2019-02-23T22:24:10.631Z,35.30
2019-02-23T22:27:00.045Z,35.60
2019-02-23T22:29:49.487Z,34.60
2019-02-23T22:32:38.873Z,35.20
2019-02-23T22:35:28.290Z,35.40
2019-02-23T22:38:17.560Z,35.40
2019-02-23T22:41:06.986Z,35.40
2019-02-23T22:43:56.458Z,34.80
2019-02-23T22:47:05.341Z,34.80
2019-02-23T22:49:54.752Z,35.20
2019-02-23T22:52:44.306Z,35.50
2019-02-23T22:55:33.668Z,35.20
2019-02-23T22:58:22.999Z,34.30
2019-02-23T23:01:12.564Z,35.00
2019-02-23T23:04:02.142Z,34.20
2019-02-23T23:06:51.438Z,34.10
2019-02-23T23:12:29.478Z,33.10
2019-02-23T23:15:18.831Z,33.40
2019-02-23T23:18:11.477Z,33.30
2019-02-23T23:21:00.878Z,33.70
2019-02-23T23:23:50.269Z,33.50
2019-02-23T23:26:32.573Z,33.00
2019-02-23T23:29:14.541Z,33.10
2019-02-23T23:31:56.093Z,32.60
2019-02-23T23:34:37.673Z,31.60
2019-02-23T23:37:19.925Z,32.10
2019-02-23T23:40:02.361Z,31.80
2019-02-23T23:42:32.681Z,31.80
2019-02-23T23:45:41.407Z,32.20
2019-02-23T23:48:30.780Z,32.50
2019-02-23T23:51:20.100Z,31.90
2019-02-23T23:54:09.510Z,31.80
2019-02-23T23:56:59.076Z,32.70
2019-02-23T23:59:48.364Z,31.50
